Change the Weather History Date:

Wednesday, August 7, 2013

  Actual Average Record
Temperature  
Mean Temperature 73 °F -  
Max Temperature 82 °F 76 °F 93 °F (2001)
Min Temperature 62 °F 57 °F 46 °F (2010)
Cooling Degree Days 8    
Growing Degree Days 23 (Base 50)    
Moisture  
Dew Point 63 °F    
Average Humidity 76    
Maximum Humidity 98    
Minimum Humidity 44    
Precipitation  
Precipitation 0.07 in - - ()
Sea Level Pressure  
Sea Level Pressure 29.81 in    
Wind  
Wind Speed 9 mph (WSW)    
Max Wind Speed 17 mph    
Max Gust Speed 25 mph    
Visibility 9 miles    
Events Rain    
Averages and records for this station are not official NWS values.
T = Trace of Precipitation, MM = Missing Value Source: NWS Daily Summary

Daily Weather History Graph

Daily Weather History Graph

Search for Another Location

Airport or City:

Trip Planner

Search our weather history database for the weather conditions in past years. The results will help you decide how hot, cold, wet, or windy it might be!

Date:

Astronomy

Aug. 07, 2013 Rise Set
Actual Time 6:27 AM EDT 8:50 PM EDT
Civil Twilight 5:54 AM EDT 9:22 PM EDT
Nautical Twilight 5:14 AM EDT 10:02 PM EDT
Astronomical Twilight 4:28 AM EDT 10:48 PM EDT
Moon 7:19 AM EDT (8/7) 8:51 PM EDT (8/7)
Length of Visible Light 15h 27m
Length of Day
14h 22m
New Moon, 1% of the Moon is Illuminated
Aug 7
New Moon
Aug 14
First Quarter
Aug 20
Full
Aug 28
Last Quarter
Sep 5
New

Hourly Weather History & Observations

Time (EDT) Temp. Heat Index Dew Point Humidity Pressure Visibility Wind Dir Wind Speed Gust Speed Precip Events Conditions
12:14 AM 68.5 °F - 66.0 °F 92% 29.84 in 10.0 mi South 8.1 mph - N/A   Clear
12:34 AM 68.9 °F - 66.2 °F 91% 29.84 in 10.0 mi SSW 11.5 mph - N/A   Clear
12:54 AM 68.9 °F - 66.4 °F 92% 29.84 in 10.0 mi SSW 10.4 mph - N/A   Clear
1:14 AM 68.5 °F - 66.4 °F 93% 29.84 in 10.0 mi SSW 9.2 mph - N/A   Clear
1:34 AM 68.0 °F - 66.4 °F 95% 29.84 in 7.0 mi SSW 6.9 mph - N/A   Scattered Clouds
1:54 AM 67.3 °F - 66.0 °F 96% 29.84 in 5.0 mi SW 4.6 mph - N/A   Mostly Cloudy
2:14 AM 67.3 °F - 66.2 °F 96% 29.83 in 5.0 mi SW 5.8 mph - N/A   Overcast
2:34 AM 68.0 °F - 67.1 °F 97% 29.83 in 4.0 mi SW 5.8 mph - N/A   Overcast
2:53 AM 68.0 °F - 67.1 °F 97% 29.82 in 2.5 mi SSW 8.1 mph - N/A   Overcast
3:14 AM 68.0 °F - 67.3 °F 98% 29.82 in 2.5 mi SSW 6.9 mph - N/A   Overcast
3:34 AM 68.0 °F - 67.3 °F 98% 29.81 in 2.5 mi South 6.9 mph - N/A   Overcast
3:53 AM 67.6 °F - 67.1 °F 98% 29.80 in 3.0 mi SSW 5.8 mph - N/A   Mostly Cloudy
4:14 AM 67.5 °F - 66.6 °F 97% 29.80 in 3.0 mi SSW 4.6 mph - N/A   Scattered Clouds
4:34 AM 67.6 °F - 67.1 °F 98% 29.79 in 3.0 mi South 4.6 mph - N/A   Mostly Cloudy
4:53 AM 68.2 °F - 67.5 °F 98% 29.78 in 4.0 mi SSW 6.9 mph - N/A   Overcast
5:14 AM 68.5 °F - 67.6 °F 97% 29.77 in 4.0 mi SSW 4.6 mph - N/A   Overcast
5:34 AM 68.5 °F - 67.6 °F 97% 29.78 in 4.0 mi SSW 6.9 mph - N/A   Overcast
5:53 AM 68.9 °F - 68.0 °F 97% 29.80 in 5.0 mi SSW 10.4 mph - N/A   Overcast
6:14 AM 67.3 °F - 64.2 °F 90% 29.80 in 5.0 mi SW 15.0 mph 25.3 mph 0.03 in Rain Rain
6:33 AM 66.0 °F - 64.2 °F 94% 29.77 in 10.0 mi SSW 5.8 mph - 0.07 in Rain Light Rain
6:54 AM 66.0 °F - 64.8 °F 96% 29.76 in 10.0 mi South 6.9 mph - 0.07 in   Light Drizzle
7:14 AM 66.4 °F - 64.4 °F 93% 29.74 in 10.0 mi South 9.2 mph - N/A Rain Light Rain
7:33 AM 66.0 °F - 64.2 °F 94% 29.75 in 10.0 mi SSW 8.1 mph - N/A   Mostly Cloudy
7:54 AM 66.2 °F - 64.6 °F 94% 29.75 in 10.0 mi SW 11.5 mph - N/A   Clear
8:14 AM 66.6 °F - 65.1 °F 95% 29.76 in 10.0 mi SSW 10.4 mph - N/A   Scattered Clouds
8:33 AM 67.3 °F - 64.9 °F 92% 29.75 in 10.0 mi SSW 9.2 mph - N/A   Mostly Cloudy
8:54 AM 68.5 °F - 65.3 °F 89% 29.75 in 10.0 mi SSW 10.4 mph - N/A   Scattered Clouds
9:14 AM 70.2 °F - 64.4 °F 82% 29.75 in 10.0 mi SSW 11.5 mph - N/A   Clear
9:34 AM 69.8 °F - 63.1 °F 79% 29.76 in 10.0 mi SW 15.0 mph - N/A   Clear
9:54 AM 71.2 °F - 63.0 °F 75% 29.76 in 10.0 mi SW 17.3 mph - N/A   Clear
10:14 AM 72.0 °F - 62.6 °F 72% 29.76 in 10.0 mi North - - N/A   Clear
10:34 AM 72.9 °F - 62.6 °F 70% 29.76 in 10.0 mi WSW 15.0 mph - N/A   Clear
10:54 AM 73.6 °F - 62.6 °F 68% 29.77 in 10.0 mi North - - N/A   Scattered Clouds
11:14 AM 75.0 °F - 62.2 °F 64% 29.78 in 10.0 mi West 15.0 mph 20.7 mph N/A   Scattered Clouds
11:33 AM 75.0 °F - 62.4 °F 65% 29.78 in 10.0 mi West 13.8 mph - N/A   Mostly Cloudy
11:54 AM 75.4 °F - 62.4 °F 64% 29.79 in 10.0 mi West 9.2 mph 17.3 mph N/A   Mostly Cloudy
12:14 PM 75.6 °F - 61.9 °F 62% 29.79 in 10.0 mi West 9.2 mph 20.7 mph N/A   Scattered Clouds
12:34 PM 76.8 °F - 62.4 °F 61% 29.80 in 10.0 mi West 11.5 mph - N/A   Mostly Cloudy
12:54 PM 78.4 °F - 62.2 °F 57% 29.80 in 10.0 mi WSW 15.0 mph 20.7 mph N/A   Mostly Cloudy
1:14 PM 78.8 °F - 61.7 °F 56% 29.80 in 10.0 mi West 12.7 mph 18.4 mph N/A   Scattered Clouds
1:34 PM 79.3 °F - 61.2 °F 54% 29.80 in 10.0 mi West 13.8 mph 21.9 mph N/A   Scattered Clouds
1:54 PM 79.5 °F - 60.8 °F 53% 29.80 in 10.0 mi West 12.7 mph 19.6 mph N/A   Scattered Clouds
2:14 PM 80.4 °F 81.2 °F 60.1 °F 50% 29.80 in 10.0 mi West 15.0 mph 20.7 mph N/A   Scattered Clouds
2:34 PM 80.6 °F 81.2 °F 60.1 °F 49% 29.80 in 10.0 mi West 13.8 mph 18.4 mph N/A   Scattered Clouds
2:54 PM 81.0 °F 81.6 °F 59.9 °F 49% 29.79 in 10.0 mi WSW 13.8 mph 19.6 mph N/A   Mostly Cloudy
3:14 PM 80.8 °F 81.4 °F 60.3 °F 49% 29.80 in 10.0 mi West 12.7 mph - N/A   Mostly Cloudy
3:34 PM 82.4 °F 82.6 °F 59.7 °F 46% 29.80 in 10.0 mi WSW 11.5 mph 18.4 mph N/A   Mostly Cloudy
3:54 PM 81.7 °F 82.0 °F 59.7 °F 47% 29.80 in 10.0 mi West 13.8 mph 18.4 mph N/A   Mostly Cloudy
4:13 PM 80.4 °F 81.1 °F 59.9 °F 49% 29.80 in 10.0 mi West 10.4 mph - N/A   Mostly Cloudy
4:34 PM 82.2 °F 82.3 °F 59.0 °F 45% 29.80 in 10.0 mi West 12.7 mph - N/A   Scattered Clouds
4:54 PM 82.2 °F 82.3 °F 59.2 °F 45% 29.80 in 10.0 mi WNW 9.2 mph - N/A   Scattered Clouds
5:14 PM 82.2 °F 82.1 °F 58.3 °F 44% 29.81 in 10.0 mi West 8.1 mph - N/A   Scattered Clouds
5:34 PM 81.5 °F 81.6 °F 58.3 °F 45% 29.80 in 10.0 mi WNW 10.4 mph - N/A   Scattered Clouds
5:53 PM 82.4 °F 82.3 °F 58.5 °F 44% 29.81 in 10.0 mi WNW 9.2 mph - N/A   Scattered Clouds
6:14 PM 81.7 °F 81.9 °F 59.0 °F 46% 29.81 in 10.0 mi West 9.2 mph - N/A   Scattered Clouds
6:34 PM 81.1 °F 81.5 °F 59.2 °F 47% 29.81 in 10.0 mi West 9.2 mph - N/A   Mostly Cloudy
6:54 PM 81.0 °F 81.6 °F 60.3 °F 49% 29.81 in 10.0 mi West 10.4 mph - N/A   Mostly Cloudy
7:14 PM 79.3 °F - 59.7 °F 51% 29.82 in 10.0 mi NW 9.2 mph - N/A   Mostly Cloudy
7:34 PM 78.3 °F - 61.5 °F 56% 29.82 in 10.0 mi NNW 8.1 mph - N/A   Overcast
7:54 PM 71.2 °F - 63.5 °F 76% 29.84 in 10.0 mi NNE 12.7 mph - N/A   Overcast
8:14 PM 70.0 °F - 63.9 °F 81% 29.85 in 10.0 mi NE 9.2 mph 12.7 mph N/A   Overcast
8:34 PM 69.1 °F - 63.7 °F 83% 29.86 in 10.0 mi NE 6.9 mph - N/A   Mostly Cloudy
8:54 PM 68.2 °F - 63.7 °F 85% 29.86 in 10.0 mi NNE 5.8 mph - N/A   Scattered Clouds
9:14 PM 67.8 °F - 63.7 °F 87% 29.87 in 10.0 mi NNE 6.9 mph - N/A   Clear
9:34 PM 67.3 °F - 63.7 °F 88% 29.88 in 10.0 mi NNE 5.8 mph - N/A   Clear
9:54 PM 66.4 °F - 63.5 °F 90% 29.89 in 10.0 mi NNE 4.6 mph - N/A   Clear
10:14 PM 65.8 °F - 63.3 °F 92% 29.90 in 10.0 mi NNW 3.5 mph - N/A   Clear
10:34 PM 65.5 °F - 63.0 °F 92% 29.91 in 10.0 mi North 3.5 mph - N/A   Clear
10:54 PM 65.3 °F - 62.1 °F 89% 29.92 in 10.0 mi Calm Calm - N/A   Clear
11:14 PM 64.8 °F - 61.9 °F 90% 29.92 in 10.0 mi Calm Calm - N/A   Clear
11:33 PM 64.2 °F - 60.6 °F 88% 29.93 in 10.0 mi NNW 4.6 mph - N/A   Clear
11:54 PM 62.8 °F - 59.9 °F 90% 29.93 in 10.0 mi Calm Calm - N/A   Clear